This is the latest recevied weather packets stored in our database for station/object LRTM. If no packets are shown the sender has not sent any weather packets the latest 10 day(s).
| Time | Temp. | Humidity | Pressure | Rain* | Wind** | Luminosity | Snow |
|---|---|---|---|---|---|---|---|
| 1777682006 | 5° C | 76% | 1023 hPa | - | - | - | - |
| 1777681106 | 5° C | 76% | 1023 hPa | - | - | - | - |
| 1777680206 | 5° C | 76% | 1023 hPa | - | - | - | - |
| 1777679317 | 6.11° C | 66% | 1023 hPa | - | - | - | - |
| 1777678407 | 6.11° C | 66% | 1023 hPa | - | - | - | - |
| 1777677506 | 7.22° C | 61% | 1023 hPa | - | - | - | - |
| 1777676607 | 7.22° C | 61% | 1023 hPa | - | - | - | - |
| 1777675706 | 7.78° C | 57% | 1023 hPa | - | - | - | - |
| 1777674806 | 7.78° C | 57% | 1023 hPa | - | - | - | - |
| 1777673906 | 7.22° C | 66% | 1023 hPa | - | - | - | - |
| 1777673006 | 7.22° C | 66% | 1023 hPa | - | - | - | - |
| 1777672106 | 7.22° C | 61% | 1023 hPa | - | - | - | - |
| 1777671207 | 7.22° C | 61% | 1023 hPa | - | - | - | - |
| 1777670306 | 7.78° C | 53% | 1023 hPa | - | - | - | - |
| 1777669407 | 7.78° C | 53% | 1023 hPa | - | - | - | - |
| 1777668506 | 7.22° C | 57% | 1023 hPa | - | - | - | - |
| 1777667606 | 7.22° C | 57% | 1023 hPa | - | - | - | - |
| 1777666707 | 7.78° C | 53% | 1023 hPa | - | - | - | - |
| 1777665806 | 7.78° C | 53% | 1023 hPa | - | - | - | - |
| 1777664924 | 11.11° C | 41% | 1023 hPa | - | - | - | - |
| 1777664028 | 11.11° C | 41% | 1023 hPa | - | - | - | - |
| 1777663106 | 12.22° C | 38% | 1023 hPa | - | - | - | - |
| 1777662207 | 12.22° C | 38% | 1023 hPa | - | - | - | - |
| 1777661306 | 10° C | 58% | 1023 hPa | - | - | - | - |
| 1777660435 | 10° C | 58% | 1023 hPa | - | - | - | - |
* Rain since midnight (hover to see other rain measurements)
** Current wind speed in m/s (hover to see current wind gust speed)